Milburn, Utah
Current Conditions -  °F | °C
As of 6:53 PM on Monday 22 Dec 2014 (Local Time) from KPUC Reporting Station
Clear Clear  
Wind Chill: 25°   Ceiling: Unl
Heat Index: 37°   Visibility: 10mi
Dew Point: 18°   Wind: 28mph
Humidity: 46%   Direction: 330°NNW
Pressure: 29.92"   Gusts: 37mph
Location:  39.7497°N, 111.442°W
Report Text: KPUC 230153Z AUTO 33024G32KT 10SM CLR 03/M08 A2992 RMK AO2 PK WND 32037/0058 SLP145 T00281078
Loading
Personal Weather Stations






























Interactive Weather Map New forecast layout! Learn more

10-Day Weather Forecast

Advertisements
Track Severe Weather on mobile